sensor_id;sensor_type;location;lat;lon;timestamp;P1;durP1;ratioP1;P2;durP2;ratioP2
6422;SDS011;3244;42.708;23.288;2023-01-13T00:01:24;6.17;;;5.60;;
6422;SDS011;3244;42.708;23.288;2023-01-13T00:03:51;5.90;;;5.40;;
6422;SDS011;3244;42.708;23.288;2023-01-13T00:06:19;5.70;;;5.30;;
6422;SDS011;3244;42.708;23.288;2023-01-13T00:08:50;7.50;;;5.50;;
6422;SDS011;3244;42.708;23.288;2023-01-13T00:11:17;4.97;;;4.57;;
6422;SDS011;3244;42.708;23.288;2023-01-13T00:13:46;5.85;;;5.30;;
6422;SDS011;3244;42.708;23.288;2023-01-13T00:16:13;5.77;;;5.03;;
6422;SDS011;3244;42.708;23.288;2023-01-13T00:18:41;6.50;;;5.55;;
6422;SDS011;3244;42.708;23.288;2023-01-13T00:21:10;5.40;;;4.97;;
6422;SDS011;3244;42.708;23.288;2023-01-13T00:23:38;5.43;;;5.00;;
6422;SDS011;3244;42.708;23.288;2023-01-13T00:26:06;6.38;;;5.80;;
6422;SDS011;3244;42.708;23.288;2023-01-13T00:28:35;6.07;;;5.57;;
6422;SDS011;3244;42.708;23.288;2023-01-13T00:31:07;5.97;;;5.47;;
6422;SDS011;3244;42.708;23.288;2023-01-13T00:33:35;6.65;;;5.35;;
6422;SDS011;3244;42.708;23.288;2023-01-13T00:36:03;6.93;;;6.25;;
6422;SDS011;3244;42.708;23.288;2023-01-13T00:38:32;6.47;;;5.88;;
6422;SDS011;3244;42.708;23.288;2023-01-13T00:41:01;6.68;;;6.05;;
6422;SDS011;3244;42.708;23.288;2023-01-13T00:43:31;6.40;;;5.60;;
6422;SDS011;3244;42.708;23.288;2023-01-13T00:45:58;6.63;;;6.10;;
6422;SDS011;3244;42.708;23.288;2023-01-13T00:48:27;6.90;;;6.30;;
6422;SDS011;3244;42.708;23.288;2023-01-13T00:50:55;7.57;;;6.30;;
6422;SDS011;3244;42.708;23.288;2023-01-13T00:53:22;7.10;;;6.43;;
6422;SDS011;3244;42.708;23.288;2023-01-13T00:55:57;7.30;;;6.60;;
6422;SDS011;3244;42.708;23.288;2023-01-13T00:58:24;7.82;;;7.13;;
6422;SDS011;3244;42.708;23.288;2023-01-13T01:00:51;6.63;;;5.95;;
6422;SDS011;3244;42.708;23.288;2023-01-13T01:03:18;7.32;;;6.65;;
6422;SDS011;3244;42.708;23.288;2023-01-13T01:05:46;7.35;;;6.70;;
6422;SDS011;3244;42.708;23.288;2023-01-13T01:08:13;8.27;;;7.57;;
6422;SDS011;3244;42.708;23.288;2023-01-13T01:10:40;8.20;;;7.40;;
6422;SDS011;3244;42.708;23.288;2023-01-13T01:13:06;8.55;;;7.30;;
6422;SDS011;3244;42.708;23.288;2023-01-13T01:15:38;8.18;;;7.38;;
6422;SDS011;3244;42.708;23.288;2023-01-13T01:18:05;8.43;;;7.53;;
6422;SDS011;3244;42.708;23.288;2023-01-13T01:20:32;8.65;;;6.80;;
6422;SDS011;3244;42.708;23.288;2023-01-13T01:23:00;8.02;;;7.22;;
6422;SDS011;3244;42.708;23.288;2023-01-13T01:25:27;7.22;;;6.53;;
6422;SDS011;3244;42.708;23.288;2023-01-13T01:27:53;8.15;;;6.25;;
6422;SDS011;3244;42.708;23.288;2023-01-13T01:30:20;11.18;;;6.40;;
6422;SDS011;3244;42.708;23.288;2023-01-13T01:32:47;8.15;;;7.25;;
6422;SDS011;3244;42.708;23.288;2023-01-13T01:35:14;7.78;;;7.00;;
6422;SDS011;3244;42.708;23.288;2023-01-13T01:37:40;6.37;;;5.87;;
6422;SDS011;3244;42.708;23.288;2023-01-13T01:40:10;6.63;;;6.03;;
6422;SDS011;3244;42.708;23.288;2023-01-13T01:42:37;6.20;;;5.67;;
6422;SDS011;3244;42.708;23.288;2023-01-13T01:45:22;7.28;;;6.47;;
6422;SDS011;3244;42.708;23.288;2023-01-13T01:47:50;7.40;;;6.70;;
6422;SDS011;3244;42.708;23.288;2023-01-13T01:50:20;6.97;;;6.28;;
6422;SDS011;3244;42.708;23.288;2023-01-13T01:52:49;7.25;;;6.63;;
6422;SDS011;3244;42.708;23.288;2023-01-13T01:55:21;6.32;;;5.82;;
6422;SDS011;3244;42.708;23.288;2023-01-13T01:57:53;7.00;;;5.45;;
6422;SDS011;3244;42.708;23.288;2023-01-13T02:00:23;6.32;;;5.65;;
6422;SDS011;3244;42.708;23.288;2023-01-13T02:02:53;5.72;;;5.22;;
6422;SDS011;3244;42.708;23.288;2023-01-13T02:05:20;5.50;;;5.10;;
6422;SDS011;3244;42.708;23.288;2023-01-13T02:07:47;5.83;;;5.33;;
6422;SDS011;3244;42.708;23.288;2023-01-13T02:10:17;6.65;;;6.05;;
6422;SDS011;3244;42.708;23.288;2023-01-13T02:12:47;5.70;;;5.23;;
6422;SDS011;3244;42.708;23.288;2023-01-13T02:15:15;5.32;;;4.93;;
6422;SDS011;3244;42.708;23.288;2023-01-13T02:17:52;6.55;;;5.65;;
6422;SDS011;3244;42.708;23.288;2023-01-13T02:20:43;5.22;;;4.82;;
6422;SDS011;3244;42.708;23.288;2023-01-13T02:30:07;6.20;;;5.80;;
6422;SDS011;3244;42.708;23.288;2023-01-13T02:33:02;5.72;;;5.28;;
6422;SDS011;3244;42.708;23.288;2023-01-13T02:35:37;6.40;;;5.77;;
6422;SDS011;3244;42.708;23.288;2023-01-13T02:38:12;6.78;;;6.18;;
6422;SDS011;3244;42.708;23.288;2023-01-13T02:40:43;6.30;;;5.80;;
6422;SDS011;3244;42.708;23.288;2023-01-13T02:43:20;6.37;;;5.87;;
6422;SDS011;3244;42.708;23.288;2023-01-13T02:46:12;6.22;;;5.63;;
6422;SDS011;3244;42.708;23.288;2023-01-13T02:48:43;6.03;;;5.47;;
6422;SDS011;3244;42.708;23.288;2023-01-13T02:51:14;7.13;;;6.43;;
6422;SDS011;3244;42.708;23.288;2023-01-13T02:53:44;6.07;;;5.57;;
6422;SDS011;3244;42.708;23.288;2023-01-13T02:56:17;7.03;;;6.43;;
6422;SDS011;3244;42.708;23.288;2023-01-13T02:58:46;5.90;;;5.40;;
6422;SDS011;3244;42.708;23.288;2023-01-13T03:01:15;6.40;;;5.82;;
6422;SDS011;3244;42.708;23.288;2023-01-13T03:03:42;8.20;;;7.35;;
6422;SDS011;3244;42.708;23.288;2023-01-13T03:06:15;6.80;;;6.30;;
6422;SDS011;3244;42.708;23.288;2023-01-13T03:08:58;7.13;;;6.45;;
6422;SDS011;3244;42.708;23.288;2023-01-13T03:11:31;6.40;;;5.90;;
6422;SDS011;3244;42.708;23.288;2023-01-13T03:14:09;7.07;;;6.32;;
6422;SDS011;3244;42.708;23.288;2023-01-13T03:16:51;7.32;;;6.63;;
6422;SDS011;3244;42.708;23.288;2023-01-13T03:19:29;9.10;;;6.53;;
6422;SDS011;3244;42.708;23.288;2023-01-13T03:22:05;6.45;;;5.95;;
6422;SDS011;3244;42.708;23.288;2023-01-13T03:24:43;6.50;;;6.00;;
6422;SDS011;3244;42.708;23.288;2023-01-13T03:27:15;6.97;;;6.25;;
6422;SDS011;3244;42.708;23.288;2023-01-13T03:29:52;6.95;;;6.25;;
6422;SDS011;3244;42.708;23.288;2023-01-13T03:32:25;6.15;;;5.65;;
6422;SDS011;3244;42.708;23.288;2023-01-13T03:34:56;8.07;;;5.28;;
6422;SDS011;3244;42.708;23.288;2023-01-13T03:37:30;6.20;;;5.70;;
6422;SDS011;3244;42.708;23.288;2023-01-13T03:40:01;6.63;;;5.97;;
6422;SDS011;3244;42.708;23.288;2023-01-13T03:42:32;6.03;;;5.53;;
6422;SDS011;3244;42.708;23.288;2023-01-13T03:45:04;5.40;;;5.10;;
6422;SDS011;3244;42.708;23.288;2023-01-13T03:47:37;6.25;;;5.75;;
6422;SDS011;3244;42.708;23.288;2023-01-13T03:50:08;6.07;;;5.57;;
6422;SDS011;3244;42.708;23.288;2023-01-13T03:52:40;5.80;;;5.30;;
6422;SDS011;3244;42.708;23.288;2023-01-13T03:55:12;5.80;;;5.32;;
6422;SDS011;3244;42.708;23.288;2023-01-13T03:57:42;5.40;;;5.00;;
6422;SDS011;3244;42.708;23.288;2023-01-13T04:00:14;5.93;;;5.38;;
6422;SDS011;3244;42.708;23.288;2023-01-13T04:02:46;6.55;;;6.05;;
6422;SDS011;3244;42.708;23.288;2023-01-13T04:05:16;5.30;;;4.90;;
6422;SDS011;3244;42.708;23.288;2023-01-13T04:07:45;6.10;;;5.57;;
6422;SDS011;3244;42.708;23.288;2023-01-13T04:10:18;5.97;;;5.45;;
6422;SDS011;3244;42.708;23.288;2023-01-13T04:12:52;5.53;;;5.07;;
6422;SDS011;3244;42.708;23.288;2023-01-13T04:15:26;5.13;;;4.73;;
6422;SDS011;3244;42.708;23.288;2023-01-13T04:18:04;32.78;;;19.95;;
6422;SDS011;3244;42.708;23.288;2023-01-13T04:20:35;24.10;;;15.07;;
6422;SDS011;3244;42.708;23.288;2023-01-13T04:23:02;9.18;;;8.23;;
6422;SDS011;3244;42.708;23.288;2023-01-13T04:25:29;13.98;;;10.07;;
6422;SDS011;3244;42.708;23.288;2023-01-13T04:27:56;11.40;;;9.13;;
6422;SDS011;3244;42.708;23.288;2023-01-13T04:30:22;16.60;;;11.85;;
6422;SDS011;3244;42.708;23.288;2023-01-13T04:32:49;7.90;;;7.10;;
6422;SDS011;3244;42.708;23.288;2023-01-13T04:35:17;7.72;;;7.03;;
6422;SDS011;3244;42.708;23.288;2023-01-13T04:37:44;5.63;;;5.22;;
6422;SDS011;3244;42.708;23.288;2023-01-13T04:40:11;6.10;;;5.60;;
6422;SDS011;3244;42.708;23.288;2023-01-13T04:42:38;6.03;;;5.47;;
6422;SDS011;3244;42.708;23.288;2023-01-13T04:45:05;5.78;;;5.15;;
6422;SDS011;3244;42.708;23.288;2023-01-13T04:47:34;5.35;;;4.95;;
6422;SDS011;3244;42.708;23.288;2023-01-13T04:50:00;5.75;;;5.35;;
6422;SDS011;3244;42.708;23.288;2023-01-13T04:52:28;5.35;;;4.93;;
6422;SDS011;3244;42.708;23.288;2023-01-13T04:54:56;5.40;;;5.00;;
6422;SDS011;3244;42.708;23.288;2023-01-13T04:57:23;6.50;;;5.95;;
6422;SDS011;3244;42.708;23.288;2023-01-13T04:59:50;5.70;;;5.25;;
6422;SDS011;3244;42.708;23.288;2023-01-13T05:02:16;6.57;;;6.07;;
6422;SDS011;3244;42.708;23.288;2023-01-13T05:04:44;6.38;;;5.78;;
6422;SDS011;3244;42.708;23.288;2023-01-13T05:07:11;7.10;;;6.40;;
6422;SDS011;3244;42.708;23.288;2023-01-13T05:09:40;9.40;;;7.87;;
6422;SDS011;3244;42.708;23.288;2023-01-13T05:12:07;8.52;;;7.65;;
6422;SDS011;3244;42.708;23.288;2023-01-13T05:14:52;6.45;;;5.95;;
6422;SDS011;3244;42.708;23.288;2023-01-13T05:17:37;6.72;;;6.13;;
6422;SDS011;3244;42.708;23.288;2023-01-13T05:20:04;6.75;;;6.15;;
6422;SDS011;3244;42.708;23.288;2023-01-13T05:22:31;8.05;;;6.78;;
6422;SDS011;3244;42.708;23.288;2023-01-13T05:25:17;7.07;;;6.47;;
6422;SDS011;3244;42.708;23.288;2023-01-13T05:27:47;7.28;;;6.68;;
6422;SDS011;3244;42.708;23.288;2023-01-13T05:30:14;7.70;;;7.00;;
6422;SDS011;3244;42.708;23.288;2023-01-13T05:32:41;7.68;;;6.97;;
6422;SDS011;3244;42.708;23.288;2023-01-13T05:35:08;7.47;;;6.88;;
6422;SDS011;3244;42.708;23.288;2023-01-13T05:37:35;8.38;;;7.68;;
6422;SDS011;3244;42.708;23.288;2023-01-13T05:40:02;10.32;;;8.93;;
6422;SDS011;3244;42.708;23.288;2023-01-13T05:42:48;9.23;;;8.27;;
6422;SDS011;3244;42.708;23.288;2023-01-13T05:45:43;35.63;;;17.48;;
6422;SDS011;3244;42.708;23.288;2023-01-13T05:48:10;8.90;;;7.78;;
6422;SDS011;3244;42.708;23.288;2023-01-13T05:50:37;11.82;;;9.43;;
6422;SDS011;3244;42.708;23.288;2023-01-13T05:53:04;9.20;;;8.15;;
6422;SDS011;3244;42.708;23.288;2023-01-13T05:55:31;12.43;;;8.65;;
6422;SDS011;3244;42.708;23.288;2023-01-13T05:57:59;9.47;;;8.57;;
6422;SDS011;3244;42.708;23.288;2023-01-13T06:00:26;9.07;;;8.18;;
6422;SDS011;3244;42.708;23.288;2023-01-13T06:02:53;11.05;;;7.72;;
6422;SDS011;3244;42.708;23.288;2023-01-13T06:05:19;12.70;;;9.48;;
6422;SDS011;3244;42.708;23.288;2023-01-13T06:07:46;11.88;;;9.32;;
6422;SDS011;3244;42.708;23.288;2023-01-13T06:10:13;9.55;;;8.40;;
6422;SDS011;3244;42.708;23.288;2023-01-13T06:12:40;9.57;;;8.07;;
6422;SDS011;3244;42.708;23.288;2023-01-13T06:15:08;11.43;;;9.07;;
6422;SDS011;3244;42.708;23.288;2023-01-13T06:17:36;11.05;;;9.40;;
6422;SDS011;3244;42.708;23.288;2023-01-13T06:20:02;9.40;;;8.23;;
6422;SDS011;3244;42.708;23.288;2023-01-13T06:22:32;13.30;;;8.85;;
6422;SDS011;3244;42.708;23.288;2023-01-13T06:25:00;10.10;;;8.77;;
6422;SDS011;3244;42.708;23.288;2023-01-13T06:27:27;8.98;;;8.07;;
6422;SDS011;3244;42.708;23.288;2023-01-13T06:29:55;19.58;;;12.68;;
6422;SDS011;3244;42.708;23.288;2023-01-13T06:32:23;15.13;;;11.57;;
6422;SDS011;3244;42.708;23.288;2023-01-13T06:34:54;12.45;;;9.95;;
6422;SDS011;3244;42.708;23.288;2023-01-13T06:37:25;9.60;;;8.55;;
6422;SDS011;3244;42.708;23.288;2023-01-13T06:39:54;12.30;;;9.77;;
6422;SDS011;3244;42.708;23.288;2023-01-13T06:42:26;9.73;;;8.50;;
6422;SDS011;3244;42.708;23.288;2023-01-13T06:45:12;11.13;;;8.15;;
6422;SDS011;3244;42.708;23.288;2023-01-13T06:47:40;9.63;;;8.05;;
6422;SDS011;3244;42.708;23.288;2023-01-13T06:50:08;10.38;;;8.15;;
6422;SDS011;3244;42.708;23.288;2023-01-13T06:52:36;11.93;;;8.50;;
6422;SDS011;3244;42.708;23.288;2023-01-13T06:55:03;14.02;;;9.55;;
6422;SDS011;3244;42.708;23.288;2023-01-13T06:57:30;10.60;;;8.95;;
6422;SDS011;3244;42.708;23.288;2023-01-13T06:59:57;9.65;;;8.65;;
6422;SDS011;3244;42.708;23.288;2023-01-13T07:02:24;14.32;;;8.98;;
6422;SDS011;3244;42.708;23.288;2023-01-13T07:04:53;17.67;;;9.45;;
6422;SDS011;3244;42.708;23.288;2023-01-13T07:07:20;10.45;;;8.65;;
6422;SDS011;3244;42.708;23.288;2023-01-13T07:09:47;8.35;;;7.55;;
6422;SDS011;3244;42.708;23.288;2023-01-13T07:12:13;9.35;;;8.35;;
6422;SDS011;3244;42.708;23.288;2023-01-13T07:14:40;8.70;;;7.90;;
6422;SDS011;3244;42.708;23.288;2023-01-13T07:17:24;9.80;;;8.68;;
6422;SDS011;3244;42.708;23.288;2023-01-13T07:19:51;7.47;;;6.88;;
6422;SDS011;3244;42.708;23.288;2023-01-13T07:22:20;8.35;;;7.38;;
6422;SDS011;3244;42.708;23.288;2023-01-13T07:24:46;8.38;;;7.18;;
6422;SDS011;3244;42.708;23.288;2023-01-13T07:27:13;8.35;;;7.22;;
6422;SDS011;3244;42.708;23.288;2023-01-13T07:29:40;12.40;;;6.82;;
6422;SDS011;3244;42.708;23.288;2023-01-13T07:32:08;10.45;;;7.38;;
6422;SDS011;3244;42.708;23.288;2023-01-13T07:34:34;7.18;;;6.30;;
6422;SDS011;3244;42.708;23.288;2023-01-13T07:37:01;7.72;;;7.00;;
6422;SDS011;3244;42.708;23.288;2023-01-13T07:39:29;7.15;;;6.45;;
6422;SDS011;3244;42.708;23.288;2023-01-13T07:41:56;11.30;;;7.83;;
6422;SDS011;3244;42.708;23.288;2023-01-13T07:44:40;21.55;;;11.77;;
6422;SDS011;3244;42.708;23.288;2023-01-13T07:47:07;16.48;;;10.10;;
6422;SDS011;3244;42.708;23.288;2023-01-13T07:49:35;14.88;;;9.68;;
6422;SDS011;3244;42.708;23.288;2023-01-13T07:52:02;14.65;;;8.40;;
6422;SDS011;3244;42.708;23.288;2023-01-13T07:54:30;17.58;;;9.35;;
6422;SDS011;3244;42.708;23.288;2023-01-13T07:56:57;8.32;;;7.53;;
6422;SDS011;3244;42.708;23.288;2023-01-13T07:59:24;11.13;;;8.38;;
6422;SDS011;3244;42.708;23.288;2023-01-13T08:01:51;10.80;;;7.10;;
6422;SDS011;3244;42.708;23.288;2023-01-13T08:04:17;7.65;;;6.88;;
6422;SDS011;3244;42.708;23.288;2023-01-13T08:06:44;6.47;;;5.90;;
6422;SDS011;3244;42.708;23.288;2023-01-13T08:09:11;6.32;;;5.72;;
6422;SDS011;3244;42.708;23.288;2023-01-13T08:11:39;6.15;;;5.55;;
6422;SDS011;3244;42.708;23.288;2023-01-13T08:14:06;6.57;;;6.05;;
6422;SDS011;3244;42.708;23.288;2023-01-13T08:16:32;8.68;;;5.82;;
6422;SDS011;3244;42.708;23.288;2023-01-13T08:18:59;6.10;;;5.60;;
6422;SDS011;3244;42.708;23.288;2023-01-13T08:21:26;12.63;;;6.72;;
6422;SDS011;3244;42.708;23.288;2023-01-13T08:23:53;6.78;;;6.18;;
6422;SDS011;3244;42.708;23.288;2023-01-13T08:26:20;8.07;;;6.50;;
6422;SDS011;3244;42.708;23.288;2023-01-13T08:28:48;7.43;;;6.68;;
6422;SDS011;3244;42.708;23.288;2023-01-13T08:31:15;7.32;;;6.72;;
6422;SDS011;3244;42.708;23.288;2023-01-13T08:33:43;7.75;;;6.85;;
6422;SDS011;3244;42.708;23.288;2023-01-13T08:36:11;7.32;;;6.47;;
6422;SDS011;3244;42.708;23.288;2023-01-13T08:38:38;6.60;;;6.00;;
6422;SDS011;3244;42.708;23.288;2023-01-13T08:41:09;6.90;;;6.38;;
6422;SDS011;3244;42.708;23.288;2023-01-13T08:43:36;5.82;;;5.35;;
6422;SDS011;3244;42.708;23.288;2023-01-13T08:46:05;12.23;;;5.95;;
6422;SDS011;3244;42.708;23.288;2023-01-13T08:48:32;5.72;;;5.28;;
6422;SDS011;3244;42.708;23.288;2023-01-13T08:51:02;6.90;;;5.97;;
6422;SDS011;3244;42.708;23.288;2023-01-13T08:53:30;6.00;;;5.53;;
6422;SDS011;3244;42.708;23.288;2023-01-13T08:55:57;4.68;;;4.38;;
6422;SDS011;3244;42.708;23.288;2023-01-13T08:58:24;6.28;;;5.78;;
6422;SDS011;3244;42.708;23.288;2023-01-13T09:00:50;5.63;;;5.22;;
6422;SDS011;3244;42.708;23.288;2023-01-13T09:03:18;5.50;;;5.10;;
6422;SDS011;3244;42.708;23.288;2023-01-13T09:05:45;5.63;;;5.13;;
6422;SDS011;3244;42.708;23.288;2023-01-13T09:08:12;5.78;;;4.50;;
6422;SDS011;3244;42.708;23.288;2023-01-13T09:10:39;5.63;;;5.18;;
6422;SDS011;3244;42.708;23.288;2023-01-13T09:13:05;5.32;;;4.82;;
6422;SDS011;3244;42.708;23.288;2023-01-13T09:15:36;5.35;;;4.90;;
6422;SDS011;3244;42.708;23.288;2023-01-13T09:18:03;4.65;;;4.35;;
6422;SDS011;3244;42.708;23.288;2023-01-13T09:20:31;7.10;;;4.47;;
6422;SDS011;3244;42.708;23.288;2023-01-13T09:22:58;4.75;;;4.35;;
6422;SDS011;3244;42.708;23.288;2023-01-13T09:25:25;5.07;;;4.63;;
6422;SDS011;3244;42.708;23.288;2023-01-13T09:27:51;5.03;;;4.68;;
6422;SDS011;3244;42.708;23.288;2023-01-13T09:30:18;10.90;;;4.68;;
6422;SDS011;3244;42.708;23.288;2023-01-13T09:32:45;4.32;;;4.03;;
6422;SDS011;3244;42.708;23.288;2023-01-13T09:35:12;4.57;;;4.28;;
6422;SDS011;3244;42.708;23.288;2023-01-13T09:37:39;4.28;;;3.88;;
6422;SDS011;3244;42.708;23.288;2023-01-13T09:40:07;4.57;;;4.28;;
6422;SDS011;3244;42.708;23.288;2023-01-13T09:42:39;7.25;;;4.53;;
6422;SDS011;3244;42.708;23.288;2023-01-13T09:45:27;6.68;;;4.00;;
6422;SDS011;3244;42.708;23.288;2023-01-13T09:48:00;4.05;;;3.72;;
6422;SDS011;3244;42.708;23.288;2023-01-13T09:50:38;4.72;;;4.32;;
6422;SDS011;3244;42.708;23.288;2023-01-13T09:53:16;4.22;;;3.92;;
6422;SDS011;3244;42.708;23.288;2023-01-13T09:55:46;5.10;;;3.58;;
6422;SDS011;3244;42.708;23.288;2023-01-13T09:58:14;3.40;;;3.15;;
6422;SDS011;3244;42.708;23.288;2023-01-13T10:00:43;3.58;;;3.28;;
6422;SDS011;3244;42.708;23.288;2023-01-13T10:03:19;5.85;;;3.70;;
6422;SDS011;3244;42.708;23.288;2023-01-13T10:05:49;6.45;;;3.13;;
6422;SDS011;3244;42.708;23.288;2023-01-13T10:08:23;5.47;;;3.42;;
6422;SDS011;3244;42.708;23.288;2023-01-13T10:10:53;4.22;;;3.92;;
6422;SDS011;3244;42.708;23.288;2023-01-13T10:13:21;3.40;;;3.20;;
6422;SDS011;3244;42.708;23.288;2023-01-13T10:15:51;3.42;;;3.15;;
6422;SDS011;3244;42.708;23.288;2023-01-13T10:18:24;3.53;;;3.25;;
6422;SDS011;3244;42.708;23.288;2023-01-13T10:21:01;3.85;;;3.45;;
6422;SDS011;3244;42.708;23.288;2023-01-13T10:26:31;5.32;;;3.78;;
6422;SDS011;3244;42.708;23.288;2023-01-13T10:29:17;4.13;;;3.83;;
6422;SDS011;3244;42.708;23.288;2023-01-13T10:31:45;4.18;;;3.03;;
6422;SDS011;3244;42.708;23.288;2023-01-13T10:34:12;3.22;;;2.70;;
6422;SDS011;3244;42.708;23.288;2023-01-13T10:36:45;3.25;;;3.05;;
6422;SDS011;3244;42.708;23.288;2023-01-13T10:39:24;4.05;;;2.90;;
6422;SDS011;3244;42.708;23.288;2023-01-13T10:42:01;3.72;;;3.42;;
6422;SDS011;3244;42.708;23.288;2023-01-13T10:44:28;3.20;;;2.90;;
6422;SDS011;3244;42.708;23.288;2023-01-13T10:46:56;3.38;;;3.08;;
6422;SDS011;3244;42.708;23.288;2023-01-13T10:49:25;3.28;;;3.08;;
6422;SDS011;3244;42.708;23.288;2023-01-13T10:51:55;4.00;;;3.20;;
6422;SDS011;3244;42.708;23.288;2023-01-13T10:54:22;4.15;;;3.85;;
6422;SDS011;3244;42.708;23.288;2023-01-13T10:59:40;4.07;;;3.67;;
6422;SDS011;3244;42.708;23.288;2023-01-13T11:02:15;5.32;;;4.15;;
6422;SDS011;3244;42.708;23.288;2023-01-13T11:04:56;5.25;;;3.88;;
6422;SDS011;3244;42.708;23.288;2023-01-13T11:07:27;4.00;;;3.67;;
6422;SDS011;3244;42.708;23.288;2023-01-13T11:10:12;3.75;;;3.50;;
6422;SDS011;3244;42.708;23.288;2023-01-13T11:12:45;4.05;;;3.08;;
6422;SDS011;3244;42.708;23.288;2023-01-13T11:15:19;4.15;;;3.75;;
6422;SDS011;3244;42.708;23.288;2023-01-13T11:17:50;4.72;;;4.32;;
6422;SDS011;3244;42.708;23.288;2023-01-13T11:20:27;4.00;;;3.70;;
6422;SDS011;3244;42.708;23.288;2023-01-13T11:22:59;4.70;;;4.32;;
6422;SDS011;3244;42.708;23.288;2023-01-13T11:25:30;4.30;;;3.90;;
6422;SDS011;3244;42.708;23.288;2023-01-13T11:28:11;5.35;;;4.40;;
6422;SDS011;3244;42.708;23.288;2023-01-13T11:30:48;5.40;;;4.80;;
6422;SDS011;3244;42.708;23.288;2023-01-13T11:33:26;10.00;;;5.57;;
6422;SDS011;3244;42.708;23.288;2023-01-13T11:36:02;5.90;;;4.40;;
6422;SDS011;3244;42.708;23.288;2023-01-13T11:38:36;6.35;;;5.40;;
6422;SDS011;3244;42.708;23.288;2023-01-13T11:41:14;8.45;;;5.85;;
6422;SDS011;3244;42.708;23.288;2023-01-13T11:43:50;5.65;;;4.35;;
6422;SDS011;3244;42.708;23.288;2023-01-13T11:46:20;4.75;;;4.25;;
6422;SDS011;3244;42.708;23.288;2023-01-13T11:48:50;4.32;;;3.92;;
6422;SDS011;3244;42.708;23.288;2023-01-13T11:51:21;8.50;;;3.85;;
6422;SDS011;3244;42.708;23.288;2023-01-13T11:53:59;5.00;;;3.78;;
6422;SDS011;3244;42.708;23.288;2023-01-13T11:56:43;3.58;;;3.28;;
6422;SDS011;3244;42.708;23.288;2023-01-13T11:59:49;4.20;;;3.80;;
6422;SDS011;3244;42.708;23.288;2023-01-13T12:02:31;5.40;;;4.40;;
6422;SDS011;3244;42.708;23.288;2023-01-13T12:05:11;5.93;;;3.97;;
6422;SDS011;3244;42.708;23.288;2023-01-13T12:07:47;3.90;;;3.55;;
6422;SDS011;3244;42.708;23.288;2023-01-13T12:10:26;7.43;;;3.90;;
6422;SDS011;3244;42.708;23.288;2023-01-13T12:13:10;4.30;;;4.00;;
6422;SDS011;3244;42.708;23.288;2023-01-13T12:15:56;3.78;;;3.47;;
6422;SDS011;3244;42.708;23.288;2023-01-13T12:18:54;3.83;;;3.63;;
6422;SDS011;3244;42.708;23.288;2023-01-13T12:21:35;4.82;;;3.85;;
6422;SDS011;3244;42.708;23.288;2023-01-13T12:24:05;6.10;;;3.20;;
6422;SDS011;3244;42.708;23.288;2023-01-13T12:26:39;6.00;;;3.10;;
6422;SDS011;3244;42.708;23.288;2023-01-13T12:29:12;3.83;;;3.47;;
6422;SDS011;3244;42.708;23.288;2023-01-13T12:31:43;4.20;;;3.80;;
6422;SDS011;3244;42.708;23.288;2023-01-13T12:34:18;3.47;;;3.28;;
6422;SDS011;3244;42.708;23.288;2023-01-13T12:36:54;6.60;;;3.88;;
6422;SDS011;3244;42.708;23.288;2023-01-13T12:39:28;3.97;;;3.70;;
6422;SDS011;3244;42.708;23.288;2023-01-13T12:42:07;4.15;;;3.72;;
6422;SDS011;3244;42.708;23.288;2023-01-13T12:45:05;4.22;;;3.85;;
6422;SDS011;3244;42.708;23.288;2023-01-13T12:47:47;3.65;;;3.45;;
6422;SDS011;3244;42.708;23.288;2023-01-13T13:02:27;5.38;;;4.38;;
6422;SDS011;3244;42.708;23.288;2023-01-13T13:04:55;5.15;;;3.28;;
6422;SDS011;3244;42.708;23.288;2023-01-13T13:10:14;3.72;;;3.42;;
6422;SDS011;3244;42.708;23.288;2023-01-13T13:12:51;5.78;;;3.60;;
6422;SDS011;3244;42.708;23.288;2023-01-13T13:15:38;4.45;;;4.05;;
6422;SDS011;3244;42.708;23.288;2023-01-13T13:18:20;5.65;;;3.70;;
6422;SDS011;3244;42.708;23.288;2023-01-13T13:21:01;4.40;;;3.25;;
6422;SDS011;3244;42.708;23.288;2023-01-13T13:29:29;5.32;;;3.45;;
6422;SDS011;3244;42.708;23.288;2023-01-13T13:32:18;4.70;;;3.58;;
6422;SDS011;3244;42.708;23.288;2023-01-13T13:35:03;5.57;;;4.40;;
6422;SDS011;3244;42.708;23.288;2023-01-13T13:37:45;5.18;;;2.63;;
6422;SDS011;3244;42.708;23.288;2023-01-13T13:40:40;5.57;;;2.95;;
6422;SDS011;3244;42.708;23.288;2023-01-13T13:43:27;3.00;;;2.78;;
6422;SDS011;3244;42.708;23.288;2023-01-13T13:46:22;3.58;;;3.10;;
6422;SDS011;3244;42.708;23.288;2023-01-13T13:49:08;3.42;;;2.97;;
6422;SDS011;3244;42.708;23.288;2023-01-13T13:51:37;3.05;;;2.83;;
6422;SDS011;3244;42.708;23.288;2023-01-13T13:54:09;2.85;;;2.67;;
6422;SDS011;3244;42.708;23.288;2023-01-13T13:56:41;3.80;;;3.10;;
6422;SDS011;3244;42.708;23.288;2023-01-13T13:59:11;3.40;;;3.10;;
6422;SDS011;3244;42.708;23.288;2023-01-13T14:01:41;3.65;;;3.35;;
6422;SDS011;3244;42.708;23.288;2023-01-13T14:04:12;3.88;;;3.58;;
6422;SDS011;3244;42.708;23.288;2023-01-13T14:06:50;6.07;;;4.55;;
6422;SDS011;3244;42.708;23.288;2023-01-13T14:09:18;7.55;;;5.85;;
6422;SDS011;3244;42.708;23.288;2023-01-13T14:11:57;5.30;;;4.80;;
6422;SDS011;3244;42.708;23.288;2023-01-13T14:14:25;8.80;;;5.78;;
6422;SDS011;3244;42.708;23.288;2023-01-13T14:16:52;9.15;;;6.30;;
6422;SDS011;3244;42.708;23.288;2023-01-13T14:19:29;6.18;;;5.60;;
6422;SDS011;3244;42.708;23.288;2023-01-13T14:22:00;9.10;;;6.25;;
6422;SDS011;3244;42.708;23.288;2023-01-13T14:24:29;6.65;;;6.05;;
6422;SDS011;3244;42.708;23.288;2023-01-13T14:27:06;14.05;;;7.22;;
6422;SDS011;3244;42.708;23.288;2023-01-13T14:29:34;10.27;;;7.40;;
6422;SDS011;3244;42.708;23.288;2023-01-13T14:32:02;13.55;;;6.70;;
6422;SDS011;3244;42.708;23.288;2023-01-13T14:34:30;9.85;;;7.25;;
6422;SDS011;3244;42.708;23.288;2023-01-13T14:37:00;18.50;;;8.32;;
6422;SDS011;3244;42.708;23.288;2023-01-13T14:39:35;8.90;;;7.28;;
6422;SDS011;3244;42.708;23.288;2023-01-13T14:42:03;10.70;;;7.93;;
6422;SDS011;3244;42.708;23.288;2023-01-13T14:44:31;10.48;;;7.72;;
6422;SDS011;3244;42.708;23.288;2023-01-13T14:47:00;13.25;;;8.57;;
6422;SDS011;3244;42.708;23.288;2023-01-13T14:49:30;12.45;;;8.65;;
6422;SDS011;3244;42.708;23.288;2023-01-13T14:52:10;13.57;;;9.10;;
6422;SDS011;3244;42.708;23.288;2023-01-13T14:54:47;16.20;;;9.90;;
6422;SDS011;3244;42.708;23.288;2023-01-13T14:57:22;18.23;;;8.90;;
6422;SDS011;3244;42.708;23.288;2023-01-13T14:59:55;10.82;;;8.95;;
6422;SDS011;3244;42.708;23.288;2023-01-13T15:02:35;9.98;;;7.97;;
6422;SDS011;3244;42.708;23.288;2023-01-13T15:07:56;10.82;;;8.13;;
6422;SDS011;3244;42.708;23.288;2023-01-13T15:10:25;12.85;;;7.85;;
6422;SDS011;3244;42.708;23.288;2023-01-13T15:12:55;11.85;;;8.57;;
6422;SDS011;3244;42.708;23.288;2023-01-13T15:15:24;10.38;;;8.00;;
6422;SDS011;3244;42.708;23.288;2023-01-13T15:17:52;18.77;;;9.52;;
6422;SDS011;3244;42.708;23.288;2023-01-13T15:20:20;14.23;;;8.85;;
6422;SDS011;3244;42.708;23.288;2023-01-13T15:22:48;8.77;;;7.70;;
6422;SDS011;3244;42.708;23.288;2023-01-13T15:25:17;9.27;;;7.93;;
6422;SDS011;3244;42.708;23.288;2023-01-13T15:27:45;10.93;;;8.45;;
6422;SDS011;3244;42.708;23.288;2023-01-13T15:30:15;12.07;;;8.45;;
6422;SDS011;3244;42.708;23.288;2023-01-13T15:32:44;15.68;;;9.13;;
6422;SDS011;3244;42.708;23.288;2023-01-13T15:35:11;14.43;;;9.55;;
6422;SDS011;3244;42.708;23.288;2023-01-13T15:37:39;12.68;;;9.65;;
6422;SDS011;3244;42.708;23.288;2023-01-13T15:40:10;17.70;;;10.10;;
6422;SDS011;3244;42.708;23.288;2023-01-13T15:42:40;15.43;;;10.40;;
6422;SDS011;3244;42.708;23.288;2023-01-13T15:45:25;18.55;;;11.18;;
6422;SDS011;3244;42.708;23.288;2023-01-13T15:48:09;14.77;;;10.30;;
6422;SDS011;3244;42.708;23.288;2023-01-13T15:50:36;14.43;;;10.73;;
6422;SDS011;3244;42.708;23.288;2023-01-13T15:53:03;21.67;;;11.35;;
6422;SDS011;3244;42.708;23.288;2023-01-13T15:55:31;15.60;;;11.18;;
6422;SDS011;3244;42.708;23.288;2023-01-13T15:57:59;24.35;;;12.27;;
6422;SDS011;3244;42.708;23.288;2023-01-13T16:00:27;17.35;;;12.75;;